createdAt,value
2018-06-15T00:01:35.690Z,13.55
2018-06-15T00:04:11.029Z,13.68
2018-06-15T00:06:44.340Z,16.07
2018-06-15T00:09:17.712Z,13.85
2018-06-15T00:11:51.440Z,14.58
2018-06-15T00:14:24.813Z,14.40
2018-06-15T00:16:58.165Z,13.53
2018-06-15T00:19:31.515Z,13.00
2018-06-15T00:22:04.846Z,13.20
2018-06-15T00:24:38.203Z,14.40
2018-06-15T00:27:11.561Z,15.98
2018-06-15T00:29:44.893Z,14.10
2018-06-15T00:32:18.196Z,16.15
2018-06-15T00:34:51.530Z,16.75
2018-06-15T00:37:24.827Z,16.60
2018-06-15T00:39:58.176Z,13.93
2018-06-15T00:42:31.504Z,17.77
2018-06-15T00:45:04.853Z,15.35
2018-06-15T00:47:38.150Z,15.60
2018-06-15T00:50:11.484Z,14.75
2018-06-15T00:52:44.778Z,15.68
2018-06-15T00:55:18.113Z,18.70
2018-06-15T00:57:51.452Z,18.17
2018-06-15T01:00:24.806Z,20.45
2018-06-15T01:02:58.180Z,16.25
2018-06-15T01:05:31.536Z,17.05
2018-06-15T01:08:04.976Z,16.25
2018-06-15T01:10:38.309Z,15.83
2018-06-15T01:13:11.631Z,15.58
2018-06-15T01:15:45.051Z,16.73
2018-06-15T01:18:18.424Z,16.97
2018-06-15T01:20:51.856Z,16.62
2018-06-15T01:23:25.229Z,17.62
2018-06-15T01:25:58.557Z,19.70
2018-06-15T01:28:32.030Z,21.07
2018-06-15T01:31:05.361Z,22.07
2018-06-15T01:33:38.698Z,21.77
2018-06-15T01:36:12.176Z,17.90
2018-06-15T01:38:45.516Z,17.80
2018-06-15T01:41:18.828Z,27.55
2018-06-15T01:43:52.209Z,19.73
2018-06-15T01:46:25.587Z,19.77
2018-06-15T01:48:58.937Z,19.15
2018-06-15T01:51:32.256Z,20.30
2018-06-15T01:54:05.653Z,21.00
2018-06-15T01:56:39.237Z,19.67
2018-06-15T01:59:12.593Z,26.90
2018-06-15T02:01:46.064Z,19.40
2018-06-15T02:04:19.389Z,20.17
2018-06-15T02:06:52.819Z,18.07
2018-06-15T02:09:26.309Z,19.15
2018-06-15T02:11:59.684Z,20.85
2018-06-15T02:14:32.976Z,18.73
2018-06-15T02:17:06.393Z,17.85
2018-06-15T02:19:39.913Z,20.60
2018-06-15T02:22:13.274Z,18.95
2018-06-15T02:24:46.628Z,20.52
2018-06-15T02:27:20.030Z,21.02
2018-06-15T02:29:53.478Z,19.17
2018-06-15T02:32:26.844Z,18.52
2018-06-15T02:35:00.189Z,21.70
2018-06-15T02:37:33.540Z,22.42
2018-06-15T02:40:06.882Z,21.33
2018-06-15T02:42:40.355Z,19.55
2018-06-15T02:45:13.741Z,19.67
2018-06-15T02:47:47.187Z,20.70
2018-06-15T02:50:21.605Z,22.32
2018-06-15T02:52:54.934Z,19.12
2018-06-15T02:55:28.380Z,21.62
2018-06-15T02:58:01.748Z,21.10
2018-06-15T03:00:35.068Z,30.45
2018-06-15T03:03:08.426Z,19.50
2018-06-15T03:05:41.740Z,22.48
2018-06-15T03:08:15.113Z,27.48
2018-06-15T03:10:48.491Z,24.82
2018-06-15T03:13:21.812Z,21.20
2018-06-15T03:15:55.233Z,24.35
2018-06-15T03:18:28.584Z,22.05
2018-06-15T03:21:01.947Z,21.37
2018-06-15T03:23:35.258Z,20.50
2018-06-15T03:26:08.593Z,23.32
2018-06-15T03:28:41.935Z,21.62
2018-06-15T03:31:15.285Z,22.85
2018-06-15T03:33:48.600Z,20.52
2018-06-15T03:36:21.918Z,20.17
2018-06-15T03:38:55.224Z,22.62
2018-06-15T03:41:28.725Z,19.87
2018-06-15T03:44:02.035Z,19.42
2018-06-15T03:46:36.001Z,20.37
2018-06-15T03:49:09.316Z,21.12
2018-06-15T03:51:42.666Z,20.85
2018-06-15T03:54:15.960Z,22.77
2018-06-15T03:56:49.303Z,23.62
2018-06-15T03:59:22.604Z,22.98
2018-06-15T04:01:55.953Z,23.02
2018-06-15T04:04:29.265Z,22.67
2018-06-15T04:07:02.606Z,19.62
2018-06-15T04:09:35.922Z,22.90
2018-06-15T04:12:09.277Z,22.30
2018-06-15T04:14:42.585Z,23.15
2018-06-15T04:17:17.001Z,23.20
2018-06-15T04:19:50.326Z,25.77
2018-06-15T04:22:23.656Z,22.70
2018-06-15T04:24:56.973Z,24.85
2018-06-15T04:27:30.369Z,24.32
2018-06-15T04:30:03.688Z,24.57
2018-06-15T04:32:37.045Z,25.95
2018-06-15T04:35:10.356Z,22.93
2018-06-15T04:37:43.668Z,28.83
2018-06-15T04:40:16.988Z,22.60
2018-06-15T04:42:50.337Z,24.50
2018-06-15T04:45:23.636Z,34.78
2018-06-15T04:47:57.070Z,31.10
2018-06-15T04:50:30.453Z,27.10
2018-06-15T04:53:03.768Z,29.37
2018-06-15T04:55:37.138Z,25.17
2018-06-15T04:58:10.471Z,25.40
2018-06-15T05:00:43.882Z,23.42
2018-06-15T05:03:17.230Z,29.57
2018-06-15T05:05:50.563Z,28.20
2018-06-15T05:08:23.892Z,23.32
2018-06-15T05:10:57.317Z,26.42
2018-06-15T05:13:30.664Z,24.82
2018-06-15T05:16:04.086Z,23.60
2018-06-15T05:18:37.458Z,21.62
2018-06-15T05:21:10.785Z,24.70
2018-06-15T05:23:44.217Z,23.10
2018-06-15T05:26:17.540Z,21.25
2018-06-15T05:28:50.856Z,21.37
2018-06-15T05:31:24.216Z,21.97
2018-06-15T05:33:57.681Z,17.98
2018-06-15T05:36:33.045Z,18.05
2018-06-15T05:39:08.748Z,22.10
2018-06-15T05:41:42.377Z,26.25
2018-06-15T05:44:15.754Z,20.45
2018-06-15T05:46:49.052Z,21.50
2018-06-15T05:49:22.408Z,20.02
2018-06-15T05:51:56.894Z,25.55
2018-06-15T05:54:30.225Z,20.20
2018-06-15T05:57:03.525Z,19.37
2018-06-15T05:59:36.884Z,22.58
2018-06-15T06:02:10.196Z,22.77
2018-06-15T06:04:43.554Z,17.82
2018-06-15T06:07:16.925Z,20.97
2018-06-15T06:09:50.278Z,19.67
2018-06-15T06:12:23.584Z,20.37
2018-06-15T06:14:56.914Z,20.92
2018-06-15T06:17:30.257Z,18.40
2018-06-15T06:20:03.689Z,14.73
2018-06-15T06:22:37.068Z,17.25
2018-06-15T06:25:10.392Z,15.63
2018-06-15T06:27:43.685Z,17.27
2018-06-15T06:30:17.027Z,18.60
2018-06-15T06:32:50.326Z,17.52
2018-06-15T06:35:23.645Z,16.93
2018-06-15T06:37:57.015Z,14.90
2018-06-15T06:40:30.315Z,19.07
2018-06-15T06:43:03.622Z,18.90
2018-06-15T06:45:36.937Z,14.30
2018-06-15T06:48:10.248Z,14.15
2018-06-15T06:50:43.571Z,11.55
2018-06-15T06:53:16.925Z,14.28
2018-06-15T06:55:50.273Z,12.75
2018-06-15T06:58:23.588Z,12.88
2018-06-15T07:00:57.080Z,15.98
2018-06-15T07:03:30.414Z,13.75
2018-06-15T07:06:03.740Z,13.35
2018-06-15T07:08:37.069Z,13.88
2018-06-15T07:11:10.468Z,10.45
2018-06-15T07:13:43.796Z,13.38
2018-06-15T07:16:17.156Z,13.62
2018-06-15T07:18:50.472Z,11.90
2018-06-15T07:21:23.815Z,12.82
2018-06-15T07:23:57.100Z,14.28
2018-06-15T07:26:30.440Z,15.32
2018-06-15T07:29:03.784Z,10.68
2018-06-15T07:31:37.096Z,8.65
2018-06-15T07:34:10.441Z,10.30
2018-06-15T07:36:43.766Z,14.47
2018-06-15T07:39:17.108Z,10.00
2018-06-15T07:41:50.444Z,7.12
2018-06-15T07:44:23.763Z,9.23
2018-06-15T07:46:57.190Z,8.25
2018-06-15T07:49:30.490Z,12.25
2018-06-15T07:52:03.813Z,9.13
2018-06-15T07:54:37.124Z,10.18
2018-06-15T07:57:10.456Z,9.95
2018-06-15T07:59:43.830Z,10.63
2018-06-15T08:02:17.080Z,6.90
2018-06-15T08:04:50.395Z,7.65
2018-06-15T08:07:23.715Z,12.90
2018-06-15T08:09:57.011Z,11.18
2018-06-15T08:12:30.328Z,5.47
2018-06-15T08:15:03.649Z,8.88
2018-06-15T08:17:37.005Z,7.50
2018-06-15T08:20:10.318Z,7.72
2018-06-15T08:22:43.641Z,6.80
2018-06-15T08:25:16.951Z,8.53
2018-06-15T08:27:50.296Z,6.65
2018-06-15T08:30:23.584Z,8.18
2018-06-15T08:32:56.980Z,9.05
2018-06-15T08:35:30.284Z,8.43
2018-06-15T08:38:03.611Z,8.50
2018-06-15T08:40:36.925Z,7.90
2018-06-15T08:43:10.244Z,9.80
2018-06-15T08:45:43.561Z,10.48
2018-06-15T08:48:16.949Z,6.17
2018-06-15T08:50:50.261Z,5.78
2018-06-15T08:53:23.589Z,8.48
2018-06-15T08:55:56.868Z,6.35
2018-06-15T08:58:30.222Z,5.20
2018-06-15T09:01:03.512Z,8.38
2018-06-15T09:03:36.809Z,6.75
2018-06-15T09:06:10.134Z,4.55
2018-06-15T09:08:43.454Z,6.78
2018-06-15T09:11:16.766Z,8.53
2018-06-15T09:13:50.076Z,5.83
2018-06-15T09:16:23.504Z,8.80
2018-06-15T09:18:56.834Z,6.78
2018-06-15T09:21:30.220Z,5.83
2018-06-15T09:24:03.535Z,5.00
2018-06-15T09:26:36.825Z,4.12
2018-06-15T09:29:10.125Z,6.55
2018-06-15T09:31:43.442Z,6.05
2018-06-15T09:34:16.756Z,7.25
2018-06-15T09:36:50.049Z,7.45
2018-06-15T09:39:23.423Z,6.55
2018-06-15T09:41:56.711Z,7.60
2018-06-15T09:44:30.084Z,6.33
2018-06-15T09:47:03.385Z,5.65
2018-06-15T09:49:36.716Z,8.00
2018-06-15T09:52:10.061Z,6.75
2018-06-15T09:54:43.408Z,4.30
2018-06-15T09:57:16.702Z,5.72
2018-06-15T09:59:50.032Z,5.78
2018-06-15T10:02:23.337Z,5.70
2018-06-15T10:04:56.648Z,5.03
2018-06-15T10:07:29.937Z,6.42
2018-06-15T10:10:03.275Z,5.58
2018-06-15T10:12:36.569Z,3.83
2018-06-15T10:15:09.889Z,6.90
2018-06-15T10:17:43.193Z,5.78
2018-06-15T10:20:16.519Z,4.55
2018-06-15T10:22:49.841Z,9.00
2018-06-15T10:25:23.151Z,7.70
2018-06-15T10:27:56.490Z,5.17
2018-06-15T10:30:29.832Z,9.05
2018-06-15T10:33:03.152Z,12.95
2018-06-15T10:35:36.486Z,9.55
2018-06-15T10:38:10.073Z,8.43
2018-06-15T10:40:43.383Z,7.08
2018-06-15T10:43:16.687Z,6.12
2018-06-15T10:45:50.018Z,6.08
2018-06-15T10:48:23.339Z,5.33
2018-06-15T10:50:56.652Z,8.85
2018-06-15T10:53:29.948Z,7.15
2018-06-15T10:56:03.250Z,4.03
2018-06-15T10:58:36.571Z,4.62
2018-06-15T11:01:09.896Z,4.95
2018-06-15T11:03:43.176Z,5.78
2018-06-15T11:06:16.485Z,4.42
2018-06-15T11:08:49.780Z,4.35
2018-06-15T11:11:23.132Z,6.20
2018-06-15T11:13:56.416Z,5.67
2018-06-15T11:16:29.728Z,5.08
2018-06-15T11:19:03.089Z,5.20
2018-06-15T11:21:36.418Z,3.95
2018-06-15T11:24:09.729Z,6.12
2018-06-15T11:26:49.645Z,8.25
2018-06-15T11:29:22.965Z,6.40
2018-06-15T11:31:56.274Z,6.12
2018-06-15T11:34:30.534Z,7.72
2018-06-15T11:37:03.859Z,3.40
2018-06-15T11:39:37.197Z,5.05
2018-06-15T11:42:10.493Z,5.28
2018-06-15T11:44:43.810Z,5.65
2018-06-15T11:47:17.117Z,5.00
2018-06-15T11:49:50.446Z,4.75
2018-06-15T11:52:23.748Z,5.37
2018-06-15T11:54:57.088Z,8.75
2018-06-15T11:57:30.543Z,6.10
2018-06-15T12:00:03.897Z,3.55
2018-06-15T12:02:37.192Z,5.87
2018-06-15T12:05:10.578Z,8.63
2018-06-15T12:07:43.887Z,3.55
2018-06-15T12:10:17.190Z,2.75
2018-06-15T12:12:50.525Z,4.80
2018-06-15T12:15:23.866Z,4.30
2018-06-15T12:17:57.192Z,7.60
2018-06-15T12:20:30.528Z,4.70
2018-06-15T12:23:03.832Z,5.37
2018-06-15T12:25:37.149Z,2.92
2018-06-15T12:28:10.792Z,3.80
2018-06-15T12:30:44.126Z,4.67
2018-06-15T12:33:17.439Z,6.72
2018-06-15T12:35:50.744Z,3.62
2018-06-15T12:38:24.280Z,4.55
2018-06-15T12:40:57.608Z,4.60
2018-06-15T12:43:30.945Z,6.15
2018-06-15T12:46:04.408Z,4.72
2018-06-15T12:48:37.596Z,6.95
2018-06-15T12:51:11.786Z,5.40
2018-06-15T12:53:47.174Z,4.05
2018-06-15T12:56:20.513Z,5.12
2018-06-15T12:58:53.808Z,3.98
2018-06-15T13:01:27.137Z,5.50
2018-06-15T13:04:00.432Z,5.60
2018-06-15T13:06:33.762Z,6.45
2018-06-15T13:09:08.374Z,8.78
2018-06-15T13:11:41.693Z,3.00
2018-06-15T13:14:15.001Z,5.33
2018-06-15T13:16:48.400Z,4.15
2018-06-15T13:19:21.704Z,5.45
2018-06-15T13:21:55.045Z,7.42
2018-06-15T13:24:32.443Z,4.28
2018-06-15T13:27:05.784Z,3.12
2018-06-15T13:29:39.089Z,2.95
2018-06-15T13:32:12.403Z,10.05
2018-06-15T13:34:45.701Z,4.47
2018-06-15T13:37:19.050Z,5.33
2018-06-15T13:39:52.429Z,9.30
2018-06-15T13:42:25.841Z,4.25
2018-06-15T13:44:59.734Z,6.08
2018-06-15T13:47:33.049Z,4.35
2018-06-15T13:50:06.345Z,6.42
2018-06-15T13:52:39.664Z,4.10
2018-06-15T13:55:12.968Z,5.92
2018-06-15T13:57:46.305Z,4.78
2018-06-15T14:00:19.633Z,5.40
2018-06-15T14:02:52.962Z,6.22
2018-06-15T14:05:26.265Z,3.65
2018-06-15T14:08:00.038Z,4.00
2018-06-15T14:10:33.360Z,2.92
2018-06-15T14:13:06.700Z,9.40
2018-06-15T14:15:40.057Z,5.42
2018-06-15T14:18:13.367Z,5.00
2018-06-15T14:20:46.716Z,4.15
2018-06-15T14:23:20.037Z,3.25
2018-06-15T14:25:53.420Z,4.53
2018-06-15T14:28:26.880Z,4.22
2018-06-15T14:31:02.519Z,2.92
2018-06-15T14:33:35.951Z,6.50
2018-06-15T14:36:09.830Z,5.20
2018-06-15T14:38:43.179Z,4.45
2018-06-15T14:41:16.489Z,4.55
2018-06-15T14:43:49.958Z,5.58
2018-06-15T14:46:23.252Z,3.02
2018-06-15T14:48:56.577Z,2.55
2018-06-15T14:51:29.938Z,4.92
2018-06-15T14:54:05.644Z,6.58
2018-06-15T14:56:39.119Z,3.42
2018-06-15T14:59:12.455Z,5.33
2018-06-15T15:01:47.001Z,6.40
2018-06-15T15:04:20.502Z,4.87
2018-06-15T15:06:53.898Z,4.78
2018-06-15T15:09:27.237Z,4.28
2018-06-15T15:12:01.501Z,5.22
2018-06-15T15:14:34.796Z,2.30
2018-06-15T15:17:08.446Z,5.28
2018-06-15T15:19:41.793Z,3.95
2018-06-15T15:22:15.144Z,4.17
2018-06-15T15:24:48.465Z,2.80
2018-06-15T15:27:21.825Z,4.37
2018-06-15T15:29:55.173Z,5.67
2018-06-15T15:32:28.521Z,4.65
2018-06-15T15:35:02.100Z,2.90
2018-06-15T15:37:35.434Z,3.52
2018-06-15T15:40:08.717Z,3.42
2018-06-15T15:42:42.032Z,6.28
2018-06-15T15:45:15.321Z,5.15
2018-06-15T15:47:48.633Z,3.72
2018-06-15T15:50:21.960Z,3.12
2018-06-15T15:52:55.268Z,3.25
2018-06-15T15:55:28.570Z,3.87
2018-06-15T15:58:02.929Z,3.45
2018-06-15T16:00:36.225Z,4.42
2018-06-15T16:03:09.550Z,3.27
2018-06-15T16:05:42.866Z,2.98
2018-06-15T16:08:16.220Z,3.95
2018-06-15T16:10:49.532Z,5.80
2018-06-15T16:13:23.530Z,4.50
2018-06-15T16:15:56.910Z,6.85
2018-06-15T16:18:30.968Z,5.80
2018-06-15T16:21:04.345Z,5.70
2018-06-15T16:23:38.509Z,4.35
2018-06-15T16:26:11.828Z,10.53
2018-06-15T16:28:45.176Z,5.55
2018-06-15T16:31:18.476Z,3.27
2018-06-15T16:33:51.829Z,5.05
2018-06-15T16:36:25.230Z,3.00
2018-06-15T16:38:58.827Z,5.40
2018-06-15T16:41:32.189Z,3.25
2018-06-15T16:44:05.597Z,5.08
2018-06-15T16:46:38.921Z,2.87
2018-06-15T16:49:12.246Z,4.90
2018-06-15T16:51:45.731Z,4.72
2018-06-15T16:54:19.147Z,3.47
2018-06-15T16:56:52.463Z,3.12
2018-06-15T16:59:25.781Z,6.53
2018-06-15T17:01:59.135Z,5.70
2018-06-15T17:04:32.449Z,5.22
2018-06-15T17:07:05.834Z,4.78
2018-06-15T17:09:39.387Z,7.53
2018-06-15T17:12:12.858Z,3.15
2018-06-15T17:14:46.193Z,5.53
2018-06-15T17:17:19.548Z,4.53
2018-06-15T17:19:52.948Z,5.05
2018-06-15T17:22:26.245Z,5.03
2018-06-15T17:25:00.552Z,2.90
2018-06-15T17:27:34.201Z,4.75
2018-06-15T17:30:07.636Z,3.50
2018-06-15T17:32:41.104Z,4.50
2018-06-15T17:35:14.436Z,3.62
2018-06-15T17:37:47.758Z,5.78
2018-06-15T17:40:21.131Z,3.30
2018-06-15T17:42:54.497Z,3.85
2018-06-15T17:45:27.826Z,4.80
2018-06-15T17:48:01.180Z,5.10
2018-06-15T17:50:34.566Z,4.55
2018-06-15T17:53:07.885Z,2.72
2018-06-15T17:55:41.282Z,6.28
2018-06-15T17:58:14.612Z,4.28
2018-06-15T18:00:47.973Z,5.20
2018-06-15T18:03:21.578Z,3.75
2018-06-15T18:05:54.980Z,4.80
2018-06-15T18:08:28.300Z,3.85
2018-06-15T18:11:02.420Z,4.12
2018-06-15T18:13:35.717Z,4.30
2018-06-15T18:16:09.057Z,3.92
2018-06-15T18:18:42.361Z,5.35
2018-06-15T18:21:15.720Z,3.47
2018-06-15T18:23:49.219Z,4.30
2018-06-15T18:26:22.556Z,3.87
2018-06-15T18:28:55.901Z,4.83
2018-06-15T18:31:29.252Z,4.37
2018-06-15T18:34:02.577Z,4.58
2018-06-15T18:36:35.908Z,4.97
2018-06-15T18:39:12.533Z,5.80
2018-06-15T18:41:45.908Z,6.10
2018-06-15T18:44:19.239Z,4.75
2018-06-15T18:46:52.554Z,4.85
2018-06-15T18:49:25.885Z,4.28
2018-06-15T18:51:59.185Z,4.37
2018-06-15T18:54:32.515Z,4.22
2018-06-15T18:57:06.281Z,3.45
2018-06-15T18:59:39.614Z,4.80
2018-06-15T19:02:12.924Z,3.90
2018-06-15T19:04:46.272Z,3.15
2018-06-15T19:07:19.587Z,3.25
2018-06-15T19:09:52.904Z,5.80
2018-06-15T19:12:27.296Z,4.25
2018-06-15T19:15:00.720Z,3.47
2018-06-15T19:17:34.040Z,2.72
2018-06-15T19:20:07.382Z,5.22
2018-06-15T19:22:40.773Z,3.42
2018-06-15T19:25:14.115Z,4.12
2018-06-15T19:27:47.416Z,3.80
2018-06-15T19:30:20.736Z,2.50
2018-06-15T19:32:54.050Z,5.35
2018-06-15T19:35:27.398Z,5.15
2018-06-15T19:38:02.749Z,5.35
2018-06-15T19:40:36.109Z,4.00
2018-06-15T19:43:09.528Z,3.70
2018-06-15T19:45:42.888Z,2.87
2018-06-15T19:48:16.216Z,4.62
2018-06-15T19:50:49.580Z,4.40
2018-06-15T19:53:22.905Z,4.20
2018-06-15T19:55:56.290Z,5.17
2018-06-15T19:58:30.949Z,3.70
2018-06-15T20:01:04.286Z,3.27
2018-06-15T20:03:37.651Z,3.25
2018-06-15T20:06:11.076Z,7.67
2018-06-15T20:08:44.405Z,3.25
2018-06-15T20:11:17.776Z,3.83
2018-06-15T20:13:51.086Z,5.62
2018-06-15T20:16:24.476Z,8.05
2018-06-15T20:18:57.821Z,4.62
2018-06-15T20:21:31.898Z,6.05
2018-06-15T20:24:05.220Z,3.25
2018-06-15T20:26:38.624Z,5.47
2018-06-15T20:29:12.243Z,3.25
2018-06-15T20:31:45.600Z,3.60
2018-06-15T20:34:19.031Z,4.37
2018-06-15T20:36:52.417Z,6.87
2018-06-15T20:39:25.728Z,5.22
2018-06-15T20:41:59.100Z,4.22
2018-06-15T20:44:32.395Z,5.17
2018-06-15T20:47:05.721Z,6.87
2018-06-15T20:49:39.055Z,4.22
2018-06-15T20:52:12.582Z,5.65
2018-06-15T20:54:55.657Z,3.80
2018-06-15T20:57:33.889Z,5.37
2018-06-15T21:00:07.236Z,4.72
2018-06-15T21:02:41.699Z,4.37
2018-06-15T21:05:15.153Z,4.30
2018-06-15T21:07:48.666Z,4.53
2018-06-15T21:10:22.211Z,4.25
2018-06-15T21:12:55.577Z,3.47
2018-06-15T21:15:29.053Z,3.65
2018-06-15T21:18:02.364Z,5.67
2018-06-15T21:20:35.668Z,5.78
2018-06-15T21:23:09.308Z,3.65
2018-06-15T21:25:42.685Z,5.05
2018-06-15T21:28:16.138Z,3.35
2018-06-15T21:30:49.492Z,6.10
2018-06-15T21:33:22.977Z,2.77
2018-06-15T21:35:56.481Z,7.22
2018-06-15T21:38:31.108Z,4.90
2018-06-15T21:41:04.396Z,7.75
2018-06-15T21:43:37.815Z,4.67
2018-06-15T21:46:11.253Z,5.72
2018-06-15T21:48:44.677Z,5.37
2018-06-15T21:51:18.121Z,7.40
2018-06-15T21:53:51.572Z,6.55
2018-06-15T21:56:25.192Z,5.08
2018-06-15T21:58:58.582Z,8.23
2018-06-15T22:01:31.927Z,4.05
2018-06-15T22:04:05.274Z,6.00
2018-06-15T22:06:39.000Z,5.53
2018-06-15T22:09:12.422Z,8.48
2018-06-15T22:11:45.747Z,6.15
2018-06-15T22:14:19.174Z,5.28
2018-06-15T22:16:53.327Z,3.00
2018-06-15T22:19:26.790Z,6.30
2018-06-15T22:22:00.117Z,6.17
2018-06-15T22:24:33.428Z,2.95
2018-06-15T22:27:06.891Z,3.77
2018-06-15T22:29:40.419Z,4.50
2018-06-15T22:32:13.941Z,5.33
2018-06-15T22:34:47.263Z,3.20
2018-06-15T22:37:20.641Z,3.02
2018-06-15T22:39:54.047Z,4.30
2018-06-15T22:42:27.341Z,4.20
2018-06-15T22:45:01.083Z,4.22
2018-06-15T22:47:34.393Z,4.28
2018-06-15T22:50:07.810Z,5.50
2018-06-15T22:52:41.229Z,6.67
2018-06-15T22:55:26.745Z,3.70
2018-06-15T22:58:00.168Z,5.10
2018-06-15T23:00:33.489Z,7.70
2018-06-15T23:03:06.926Z,6.85
2018-06-15T23:05:40.322Z,5.35
2018-06-15T23:08:13.657Z,11.18
2018-06-15T23:10:47.002Z,4.78
2018-06-15T23:13:20.409Z,6.37
2018-06-15T23:15:53.915Z,2.85
2018-06-15T23:18:32.947Z,4.35
2018-06-15T23:21:06.294Z,4.28
2018-06-15T23:23:39.911Z,5.10
2018-06-15T23:26:13.229Z,6.72
2018-06-15T23:28:46.632Z,3.70
2018-06-15T23:31:20.076Z,6.40
2018-06-15T23:33:53.521Z,8.25
2018-06-15T23:36:26.881Z,4.17
2018-06-15T23:39:00.228Z,3.08
2018-06-15T23:41:33.526Z,4.25
2018-06-15T23:44:07.056Z,4.53
2018-06-15T23:46:40.418Z,5.12
2018-06-15T23:49:13.757Z,6.40
2018-06-15T23:51:47.128Z,4.78
2018-06-15T23:54:20.477Z,7.15
2018-06-15T23:56:53.921Z,6.37
2018-06-15T23:59:27.348Z,3.37
